メインページ
METAR-TAF:

METAR-TAF

空港 :

Key Lake, サスカチュワン州, カナダ

緯度: 57-15N, 経度: 105-37W, 海抜: 509m

現時点の気象観測

当レポートは22分前の06:00(UTC)に作成
北西の風 3kt
気温 -27°C
湿度 62%
気圧 1002 hPa
視程: 14.5km
晴天

METAR: CYKJ 150600Z AUTO 32003KT 9SM CLR M27/M32 A2958 RMK SLP084

時間: 00:22 (06:22 UTC)

予報

当レポートは8時間57分前の21:25(UTC)に作成
予報は14日の 21時(UTC)から 14日の 24時(UTC)まで有効
南/南東の風 8kt
視程: 9.7km
高度3000ftの千切れ雲あり
高度6000ftの曇り
小雪
14日の 21時(UTC)から 14日の 24時(UTC)まで一時的に
視程: 3.2km
高度2000ftの千切れ雲あり
高度3000ftの曇り
小雪
14日の 21時(UTC)から 14日の 23時(UTC)まで徐々に
南西の風 8kt

TAF: CYKJ 142125Z 1421/1424 16008KT 6SM -SN BKN030 OVC060 TEMPO 1421/1424 2SM -SN BKN020 OVC030 BECMG 1421/1423 22008KT RMK FCST BASED ON AUTO OBS. NXT FCST WILL BE ISSUED AT 150945Z

4,000以上の空港の気象観測と天気予報(METAR報とTAF報)

利用可能な観測所は地図上に黄色い丸と赤い丸で示す。

丸の上にカーソルを重ねると観測所名を参照できる。

次にクリックすると気象観測と天気予報を参照できる。

マップの切り替え:黒色「×」印の緑ボタンをクリックして拡大、「-」印の緑ボタンをクリックして縮小、緑色の三角印をクリックして隣りの地図に切り替え


METAR-TAF: